sensor_id;sensor_type;location;lat;lon;timestamp;P1;durP1;ratioP1;P2;durP2;ratioP2
10523;SDS011;5310;48.638;9.060;2022-12-11T00:02:26;1.00;;;1.00;;
10523;SDS011;5310;48.638;9.060;2022-12-11T00:04:52;1.10;;;1.10;;
10523;SDS011;5310;48.638;9.060;2022-12-11T00:07:18;1.10;;;1.10;;
10523;SDS011;5310;48.638;9.060;2022-12-11T00:09:44;0.80;;;0.80;;
10523;SDS011;5310;48.638;9.060;2022-12-11T00:12:10;1.00;;;1.00;;
10523;SDS011;5310;48.638;9.060;2022-12-11T00:14:36;1.00;;;1.00;;
10523;SDS011;5310;48.638;9.060;2022-12-11T00:17:02;1.05;;;1.05;;
10523;SDS011;5310;48.638;9.060;2022-12-11T00:19:28;0.98;;;0.98;;
10523;SDS011;5310;48.638;9.060;2022-12-11T00:21:54;1.00;;;1.00;;
10523;SDS011;5310;48.638;9.060;2022-12-11T00:24:20;1.00;;;1.00;;
10523;SDS011;5310;48.638;9.060;2022-12-11T00:26:46;1.08;;;1.08;;
10523;SDS011;5310;48.638;9.060;2022-12-11T00:29:12;1.00;;;1.00;;
10523;SDS011;5310;48.638;9.060;2022-12-11T00:31:39;1.10;;;1.10;;
10523;SDS011;5310;48.638;9.060;2022-12-11T00:34:06;1.10;;;1.10;;
10523;SDS011;5310;48.638;9.060;2022-12-11T00:36:32;1.10;;;1.10;;
10523;SDS011;5310;48.638;9.060;2022-12-11T00:38:57;1.10;;;1.10;;
10523;SDS011;5310;48.638;9.060;2022-12-11T00:41:23;1.10;;;1.10;;
10523;SDS011;5310;48.638;9.060;2022-12-11T00:43:49;1.20;;;1.20;;
10523;SDS011;5310;48.638;9.060;2022-12-11T00:46:15;1.20;;;1.20;;
10523;SDS011;5310;48.638;9.060;2022-12-11T00:48:41;1.20;;;1.20;;
10523;SDS011;5310;48.638;9.060;2022-12-11T00:51:06;1.20;;;1.20;;
10523;SDS011;5310;48.638;9.060;2022-12-11T00:53:32;1.10;;;1.10;;
10523;SDS011;5310;48.638;9.060;2022-12-11T00:55:58;1.20;;;1.20;;
10523;SDS011;5310;48.638;9.060;2022-12-11T00:58:24;1.20;;;1.20;;
10523;SDS011;5310;48.638;9.060;2022-12-11T01:00:50;1.20;;;1.20;;
10523;SDS011;5310;48.638;9.060;2022-12-11T01:03:17;1.10;;;1.10;;
10523;SDS011;5310;48.638;9.060;2022-12-11T01:05:50;1.10;;;1.10;;
10523;SDS011;5310;48.638;9.060;2022-12-11T01:08:17;1.20;;;1.20;;
10523;SDS011;5310;48.638;9.060;2022-12-11T01:10:43;1.10;;;1.10;;
10523;SDS011;5310;48.638;9.060;2022-12-11T01:13:08;1.20;;;1.20;;
10523;SDS011;5310;48.638;9.060;2022-12-11T01:15:39;1.20;;;1.20;;
10523;SDS011;5310;48.638;9.060;2022-12-11T01:18:07;1.20;;;1.20;;
10523;SDS011;5310;48.638;9.060;2022-12-11T01:20:34;1.10;;;1.10;;
10523;SDS011;5310;48.638;9.060;2022-12-11T01:23:01;1.10;;;1.10;;
10523;SDS011;5310;48.638;9.060;2022-12-11T01:25:27;1.10;;;1.10;;
10523;SDS011;5310;48.638;9.060;2022-12-11T01:27:53;1.10;;;1.10;;
10523;SDS011;5310;48.638;9.060;2022-12-11T01:30:20;1.10;;;1.10;;
10523;SDS011;5310;48.638;9.060;2022-12-11T01:32:48;1.10;;;1.10;;
10523;SDS011;5310;48.638;9.060;2022-12-11T01:35:14;1.30;;;1.30;;
10523;SDS011;5310;48.638;9.060;2022-12-11T01:37:40;1.20;;;1.20;;
10523;SDS011;5310;48.638;9.060;2022-12-11T01:40:06;1.10;;;1.10;;
10523;SDS011;5310;48.638;9.060;2022-12-11T01:42:33;1.10;;;1.10;;
10523;SDS011;5310;48.638;9.060;2022-12-11T01:47:46;1.10;;;1.10;;
10523;SDS011;5310;48.638;9.060;2022-12-11T01:50:13;1.10;;;1.10;;
10523;SDS011;5310;48.638;9.060;2022-12-11T01:52:39;1.20;;;1.20;;
10523;SDS011;5310;48.638;9.060;2022-12-11T01:55:07;1.10;;;1.10;;
10523;SDS011;5310;48.638;9.060;2022-12-11T01:57:33;1.30;;;1.30;;
10523;SDS011;5310;48.638;9.060;2022-12-11T02:00:05;1.20;;;1.20;;
10523;SDS011;5310;48.638;9.060;2022-12-11T02:02:31;1.20;;;1.20;;
10523;SDS011;5310;48.638;9.060;2022-12-11T02:04:57;1.30;;;1.30;;
10523;SDS011;5310;48.638;9.060;2022-12-11T02:07:29;1.10;;;1.10;;
10523;SDS011;5310;48.638;9.060;2022-12-11T02:10:07;1.10;;;1.10;;
10523;SDS011;5310;48.638;9.060;2022-12-11T02:21:09;1.20;;;1.20;;
10523;SDS011;5310;48.638;9.060;2022-12-11T02:23:57;1.20;;;1.20;;
10523;SDS011;5310;48.638;9.060;2022-12-11T02:29:16;1.20;;;1.20;;
10523;SDS011;5310;48.638;9.060;2022-12-11T02:32:10;1.20;;;1.20;;
10523;SDS011;5310;48.638;9.060;2022-12-11T02:34:41;1.20;;;1.20;;
10523;SDS011;5310;48.638;9.060;2022-12-11T02:37:11;1.10;;;1.10;;
10523;SDS011;5310;48.638;9.060;2022-12-11T02:39:39;1.10;;;1.10;;
10523;SDS011;5310;48.638;9.060;2022-12-11T02:42:07;1.10;;;1.10;;
10523;SDS011;5310;48.638;9.060;2022-12-11T02:44:35;1.20;;;1.20;;
10523;SDS011;5310;48.638;9.060;2022-12-11T02:47:03;1.10;;;1.10;;
10523;SDS011;5310;48.638;9.060;2022-12-11T02:49:31;1.20;;;1.20;;
10523;SDS011;5310;48.638;9.060;2022-12-11T02:51:58;1.20;;;1.20;;
10523;SDS011;5310;48.638;9.060;2022-12-11T02:54:28;1.20;;;1.20;;
10523;SDS011;5310;48.638;9.060;2022-12-11T02:57:07;1.20;;;1.20;;
10523;SDS011;5310;48.638;9.060;2022-12-11T02:59:38;1.20;;;1.20;;
10523;SDS011;5310;48.638;9.060;2022-12-11T03:02:06;1.10;;;1.10;;
10523;SDS011;5310;48.638;9.060;2022-12-11T03:04:33;1.10;;;1.10;;
10523;SDS011;5310;48.638;9.060;2022-12-11T03:07:07;1.10;;;1.10;;
10523;SDS011;5310;48.638;9.060;2022-12-11T03:09:38;1.20;;;1.20;;
10523;SDS011;5310;48.638;9.060;2022-12-11T03:12:05;1.30;;;1.30;;
10523;SDS011;5310;48.638;9.060;2022-12-11T03:14:31;1.20;;;1.20;;
10523;SDS011;5310;48.638;9.060;2022-12-11T03:20:30;1.20;;;1.20;;
10523;SDS011;5310;48.638;9.060;2022-12-11T03:22:50;1.17;;;1.17;;
10523;SDS011;5310;48.638;9.060;2022-12-11T03:25:19;1.20;;;1.20;;
10523;SDS011;5310;48.638;9.060;2022-12-11T03:27:53;1.20;;;1.20;;
10523;SDS011;5310;48.638;9.060;2022-12-11T03:30:22;1.20;;;1.20;;
10523;SDS011;5310;48.638;9.060;2022-12-11T03:32:52;1.20;;;1.20;;
10523;SDS011;5310;48.638;9.060;2022-12-11T03:35:25;1.30;;;1.30;;
10523;SDS011;5310;48.638;9.060;2022-12-11T03:37:59;1.20;;;1.20;;
10523;SDS011;5310;48.638;9.060;2022-12-11T03:40:28;1.10;;;1.10;;
10523;SDS011;5310;48.638;9.060;2022-12-11T03:42:57;1.20;;;1.20;;
10523;SDS011;5310;48.638;9.060;2022-12-11T03:45:23;1.20;;;1.20;;
10523;SDS011;5310;48.638;9.060;2022-12-11T03:47:51;1.17;;;1.17;;
10523;SDS011;5310;48.638;9.060;2022-12-11T03:50:19;1.20;;;1.20;;
10523;SDS011;5310;48.638;9.060;2022-12-11T03:52:46;1.20;;;1.20;;
10523;SDS011;5310;48.638;9.060;2022-12-11T03:55:13;1.20;;;1.20;;
10523;SDS011;5310;48.638;9.060;2022-12-11T03:57:41;1.17;;;1.17;;
10523;SDS011;5310;48.638;9.060;2022-12-11T04:00:08;1.20;;;1.20;;
10523;SDS011;5310;48.638;9.060;2022-12-11T04:02:39;1.20;;;1.20;;
10523;SDS011;5310;48.638;9.060;2022-12-11T04:05:05;1.20;;;1.20;;
10523;SDS011;5310;48.638;9.060;2022-12-11T04:07:31;1.20;;;1.20;;
10523;SDS011;5310;48.638;9.060;2022-12-11T04:09:57;1.17;;;1.17;;
10523;SDS011;5310;48.638;9.060;2022-12-11T04:12:23;1.10;;;1.10;;
10523;SDS011;5310;48.638;9.060;2022-12-11T04:14:49;1.10;;;1.10;;
10523;SDS011;5310;48.638;9.060;2022-12-11T04:17:35;1.20;;;1.20;;
10523;SDS011;5310;48.638;9.060;2022-12-11T04:20:20;1.20;;;1.20;;
10523;SDS011;5310;48.638;9.060;2022-12-11T04:23:05;1.20;;;1.20;;
10523;SDS011;5310;48.638;9.060;2022-12-11T04:25:50;1.20;;;1.20;;
10523;SDS011;5310;48.638;9.060;2022-12-11T04:28:16;1.27;;;1.27;;
10523;SDS011;5310;48.638;9.060;2022-12-11T04:30:46;1.10;;;1.10;;
10523;SDS011;5310;48.638;9.060;2022-12-11T04:33:13;1.10;;;1.10;;
10523;SDS011;5310;48.638;9.060;2022-12-11T04:35:39;1.10;;;1.10;;
10523;SDS011;5310;48.638;9.060;2022-12-11T04:38:05;1.20;;;1.20;;
10523;SDS011;5310;48.638;9.060;2022-12-11T04:40:31;1.20;;;1.20;;
10523;SDS011;5310;48.638;9.060;2022-12-11T04:42:57;1.20;;;1.20;;
10523;SDS011;5310;48.638;9.060;2022-12-11T04:45:23;1.10;;;1.10;;
10523;SDS011;5310;48.638;9.060;2022-12-11T04:47:49;1.20;;;1.20;;
10523;SDS011;5310;48.638;9.060;2022-12-11T04:50:15;1.27;;;1.27;;
10523;SDS011;5310;48.638;9.060;2022-12-11T04:52:41;1.10;;;1.10;;
10523;SDS011;5310;48.638;9.060;2022-12-11T04:55:07;1.13;;;1.13;;
10523;SDS011;5310;48.638;9.060;2022-12-11T04:57:33;1.10;;;1.10;;
10523;SDS011;5310;48.638;9.060;2022-12-11T04:59:59;1.10;;;1.10;;
10523;SDS011;5310;48.638;9.060;2022-12-11T05:02:26;1.30;;;1.30;;
10523;SDS011;5310;48.638;9.060;2022-12-11T05:04:51;1.10;;;1.10;;
10523;SDS011;5310;48.638;9.060;2022-12-11T05:07:17;1.10;;;1.10;;
10523;SDS011;5310;48.638;9.060;2022-12-11T05:09:43;1.20;;;1.20;;
10523;SDS011;5310;48.638;9.060;2022-12-11T05:12:09;1.20;;;1.20;;
10523;SDS011;5310;48.638;9.060;2022-12-11T05:14:35;1.10;;;1.10;;
10523;SDS011;5310;48.638;9.060;2022-12-11T05:17:01;1.20;;;1.20;;
10523;SDS011;5310;48.638;9.060;2022-12-11T05:19:27;1.10;;;1.10;;
10523;SDS011;5310;48.638;9.060;2022-12-11T05:21:53;1.10;;;1.10;;
10523;SDS011;5310;48.638;9.060;2022-12-11T05:24:19;1.10;;;1.10;;
10523;SDS011;5310;48.638;9.060;2022-12-11T05:26:45;1.10;;;1.10;;
10523;SDS011;5310;48.638;9.060;2022-12-11T05:29:10;1.20;;;1.20;;
10523;SDS011;5310;48.638;9.060;2022-12-11T05:31:36;1.00;;;1.00;;
10523;SDS011;5310;48.638;9.060;2022-12-11T05:34:02;1.00;;;1.00;;
10523;SDS011;5310;48.638;9.060;2022-12-11T05:36:29;1.10;;;1.10;;
10523;SDS011;5310;48.638;9.060;2022-12-11T05:38:56;1.10;;;1.10;;
10523;SDS011;5310;48.638;9.060;2022-12-11T05:41:23;0.90;;;0.90;;
10523;SDS011;5310;48.638;9.060;2022-12-11T05:43:50;1.10;;;1.10;;
10523;SDS011;5310;48.638;9.060;2022-12-11T05:46:26;1.13;;;1.13;;
10523;SDS011;5310;48.638;9.060;2022-12-11T05:48:55;1.10;;;1.10;;
10523;SDS011;5310;48.638;9.060;2022-12-11T05:51:22;1.10;;;1.10;;
10523;SDS011;5310;48.638;9.060;2022-12-11T05:53:49;1.10;;;1.10;;
10523;SDS011;5310;48.638;9.060;2022-12-11T05:56:17;1.20;;;1.20;;
10523;SDS011;5310;48.638;9.060;2022-12-11T05:58:45;1.10;;;1.10;;
10523;SDS011;5310;48.638;9.060;2022-12-11T06:01:16;1.20;;;1.20;;
10523;SDS011;5310;48.638;9.060;2022-12-11T06:04:02;1.10;;;1.10;;
10523;SDS011;5310;48.638;9.060;2022-12-11T06:06:28;1.20;;;1.20;;
10523;SDS011;5310;48.638;9.060;2022-12-11T06:08:54;1.17;;;1.17;;
10523;SDS011;5310;48.638;9.060;2022-12-11T06:11:21;1.13;;;1.13;;
10523;SDS011;5310;48.638;9.060;2022-12-11T06:13:48;1.10;;;1.10;;
10523;SDS011;5310;48.638;9.060;2022-12-11T06:16:14;1.20;;;1.20;;
10523;SDS011;5310;48.638;9.060;2022-12-11T06:18:41;1.10;;;1.10;;
10523;SDS011;5310;48.638;9.060;2022-12-11T06:23:41;1.10;;;1.10;;
10523;SDS011;5310;48.638;9.060;2022-12-11T06:26:08;1.20;;;1.20;;
10523;SDS011;5310;48.638;9.060;2022-12-11T06:28:34;1.20;;;1.20;;
10523;SDS011;5310;48.638;9.060;2022-12-11T06:31:01;1.10;;;1.10;;
10523;SDS011;5310;48.638;9.060;2022-12-11T06:33:27;1.10;;;1.10;;
10523;SDS011;5310;48.638;9.060;2022-12-11T06:35:53;1.20;;;1.20;;
10523;SDS011;5310;48.638;9.060;2022-12-11T06:38:19;1.00;;;1.00;;
10523;SDS011;5310;48.638;9.060;2022-12-11T06:40:45;1.10;;;1.10;;
10523;SDS011;5310;48.638;9.060;2022-12-11T06:43:18;1.10;;;1.10;;
10523;SDS011;5310;48.638;9.060;2022-12-11T06:45:43;1.20;;;1.20;;
10523;SDS011;5310;48.638;9.060;2022-12-11T06:48:09;1.00;;;1.00;;
10523;SDS011;5310;48.638;9.060;2022-12-11T06:50:36;1.10;;;1.10;;
10523;SDS011;5310;48.638;9.060;2022-12-11T06:53:02;1.20;;;1.20;;
10523;SDS011;5310;48.638;9.060;2022-12-11T06:55:28;1.10;;;1.10;;
10523;SDS011;5310;48.638;9.060;2022-12-11T06:57:54;1.10;;;1.10;;
10523;SDS011;5310;48.638;9.060;2022-12-11T07:00:20;1.13;;;1.13;;
10523;SDS011;5310;48.638;9.060;2022-12-11T07:02:46;1.13;;;1.13;;
10523;SDS011;5310;48.638;9.060;2022-12-11T07:05:12;1.10;;;1.10;;
10523;SDS011;5310;48.638;9.060;2022-12-11T07:07:38;1.10;;;1.10;;
10523;SDS011;5310;48.638;9.060;2022-12-11T07:10:04;1.20;;;1.20;;
10523;SDS011;5310;48.638;9.060;2022-12-11T07:12:30;1.10;;;1.10;;
10523;SDS011;5310;48.638;9.060;2022-12-11T07:14:56;1.10;;;1.10;;
10523;SDS011;5310;48.638;9.060;2022-12-11T07:17:22;1.10;;;1.10;;
10523;SDS011;5310;48.638;9.060;2022-12-11T07:19:48;1.10;;;1.10;;
10523;SDS011;5310;48.638;9.060;2022-12-11T07:22:14;1.10;;;1.10;;
10523;SDS011;5310;48.638;9.060;2022-12-11T07:24:40;1.10;;;1.10;;
10523;SDS011;5310;48.638;9.060;2022-12-11T07:27:06;1.20;;;1.20;;
10523;SDS011;5310;48.638;9.060;2022-12-11T07:29:32;0.90;;;0.90;;
10523;SDS011;5310;48.638;9.060;2022-12-11T07:31:58;1.10;;;1.10;;
10523;SDS011;5310;48.638;9.060;2022-12-11T07:34:24;1.10;;;1.10;;
10523;SDS011;5310;48.638;9.060;2022-12-11T07:36:50;1.10;;;1.10;;
10523;SDS011;5310;48.638;9.060;2022-12-11T07:39:16;0.90;;;0.90;;
10523;SDS011;5310;48.638;9.060;2022-12-11T07:41:42;1.10;;;1.10;;
10523;SDS011;5310;48.638;9.060;2022-12-11T07:44:08;1.08;;;1.08;;
10523;SDS011;5310;48.638;9.060;2022-12-11T07:46:34;1.10;;;1.10;;
10523;SDS011;5310;48.638;9.060;2022-12-11T07:49:00;0.90;;;0.90;;
10523;SDS011;5310;48.638;9.060;2022-12-11T07:51:28;1.10;;;1.10;;
10523;SDS011;5310;48.638;9.060;2022-12-11T07:53:55;1.10;;;1.10;;
10523;SDS011;5310;48.638;9.060;2022-12-11T07:56:22;1.10;;;1.10;;
10523;SDS011;5310;48.638;9.060;2022-12-11T07:58:48;1.00;;;1.00;;
10523;SDS011;5310;48.638;9.060;2022-12-11T08:01:15;1.00;;;1.00;;
10523;SDS011;5310;48.638;9.060;2022-12-11T08:03:41;1.10;;;1.10;;
10523;SDS011;5310;48.638;9.060;2022-12-11T08:06:07;1.10;;;1.10;;
10523;SDS011;5310;48.638;9.060;2022-12-11T08:08:33;1.00;;;1.00;;
10523;SDS011;5310;48.638;9.060;2022-12-11T08:11:00;1.00;;;1.00;;
10523;SDS011;5310;48.638;9.060;2022-12-11T08:13:26;1.10;;;1.10;;
10523;SDS011;5310;48.638;9.060;2022-12-11T08:15:52;1.10;;;1.10;;
10523;SDS011;5310;48.638;9.060;2022-12-11T08:18:18;0.90;;;0.90;;
10523;SDS011;5310;48.638;9.060;2022-12-11T08:20:44;1.00;;;1.00;;
10523;SDS011;5310;48.638;9.060;2022-12-11T08:23:10;1.00;;;1.00;;
10523;SDS011;5310;48.638;9.060;2022-12-11T08:25:36;1.10;;;1.10;;
10523;SDS011;5310;48.638;9.060;2022-12-11T08:28:02;1.10;;;1.10;;
10523;SDS011;5310;48.638;9.060;2022-12-11T08:30:28;1.10;;;1.10;;
10523;SDS011;5310;48.638;9.060;2022-12-11T08:32:54;1.20;;;1.20;;
10523;SDS011;5310;48.638;9.060;2022-12-11T08:35:20;1.02;;;1.02;;
10523;SDS011;5310;48.638;9.060;2022-12-11T08:37:46;1.00;;;1.00;;
10523;SDS011;5310;48.638;9.060;2022-12-11T08:40:12;1.10;;;1.10;;
10523;SDS011;5310;48.638;9.060;2022-12-11T08:42:38;1.10;;;1.10;;
10523;SDS011;5310;48.638;9.060;2022-12-11T08:45:04;0.90;;;0.90;;
10523;SDS011;5310;48.638;9.060;2022-12-11T08:47:30;0.90;;;0.90;;
10523;SDS011;5310;48.638;9.060;2022-12-11T08:49:56;1.00;;;1.00;;
10523;SDS011;5310;48.638;9.060;2022-12-11T08:52:22;1.10;;;1.10;;
10523;SDS011;5310;48.638;9.060;2022-12-11T08:54:48;1.00;;;1.00;;
10523;SDS011;5310;48.638;9.060;2022-12-11T08:57:14;1.10;;;1.10;;
10523;SDS011;5310;48.638;9.060;2022-12-11T08:59:40;0.80;;;0.80;;
10523;SDS011;5310;48.638;9.060;2022-12-11T09:02:08;0.90;;;0.90;;
10523;SDS011;5310;48.638;9.060;2022-12-11T09:04:35;1.00;;;1.00;;
10523;SDS011;5310;48.638;9.060;2022-12-11T09:07:01;1.00;;;1.00;;
10523;SDS011;5310;48.638;9.060;2022-12-11T09:09:27;1.10;;;1.10;;
10523;SDS011;5310;48.638;9.060;2022-12-11T09:11:53;1.00;;;1.00;;
10523;SDS011;5310;48.638;9.060;2022-12-11T09:14:20;0.90;;;0.90;;
10523;SDS011;5310;48.638;9.060;2022-12-11T09:16:46;0.80;;;0.80;;
10523;SDS011;5310;48.638;9.060;2022-12-11T09:19:12;0.90;;;0.90;;
10523;SDS011;5310;48.638;9.060;2022-12-11T09:21:38;0.90;;;0.90;;
10523;SDS011;5310;48.638;9.060;2022-12-11T09:24:05;1.00;;;1.00;;
10523;SDS011;5310;48.638;9.060;2022-12-11T09:26:31;1.00;;;1.00;;
10523;SDS011;5310;48.638;9.060;2022-12-11T09:28:57;1.02;;;1.02;;
10523;SDS011;5310;48.638;9.060;2022-12-11T09:31:23;0.90;;;0.90;;
10523;SDS011;5310;48.638;9.060;2022-12-11T09:33:50;0.70;;;0.70;;
10523;SDS011;5310;48.638;9.060;2022-12-11T09:36:16;0.80;;;0.80;;
10523;SDS011;5310;48.638;9.060;2022-12-11T09:38:42;1.00;;;1.00;;
10523;SDS011;5310;48.638;9.060;2022-12-11T09:41:16;0.90;;;0.90;;
10523;SDS011;5310;48.638;9.060;2022-12-11T09:43:51;1.00;;;1.00;;
10523;SDS011;5310;48.638;9.060;2022-12-11T09:46:23;1.00;;;1.00;;
10523;SDS011;5310;48.638;9.060;2022-12-11T09:48:49;1.00;;;1.00;;
10523;SDS011;5310;48.638;9.060;2022-12-11T09:51:20;1.00;;;1.00;;
10523;SDS011;5310;48.638;9.060;2022-12-11T09:53:46;1.10;;;1.10;;
10523;SDS011;5310;48.638;9.060;2022-12-11T09:56:21;1.00;;;1.00;;
10523;SDS011;5310;48.638;9.060;2022-12-11T10:01:21;0.90;;;0.90;;
10523;SDS011;5310;48.638;9.060;2022-12-11T10:03:59;0.80;;;0.80;;
10523;SDS011;5310;48.638;9.060;2022-12-11T10:06:37;0.80;;;0.80;;
10523;SDS011;5310;48.638;9.060;2022-12-11T10:09:10;0.80;;;0.80;;
10523;SDS011;5310;48.638;9.060;2022-12-11T10:19:42;0.77;;;0.77;;
10523;SDS011;5310;48.638;9.060;2022-12-11T10:22:17;0.70;;;0.70;;
10523;SDS011;5310;48.638;9.060;2022-12-11T10:25:00;1.10;;;1.10;;
10523;SDS011;5310;48.638;9.060;2022-12-11T10:27:38;1.00;;;1.00;;
10523;SDS011;5310;48.638;9.060;2022-12-11T10:30:21;1.10;;;1.10;;
10523;SDS011;5310;48.638;9.060;2022-12-11T10:37:49;1.00;;;1.00;;
10523;SDS011;5310;48.638;9.060;2022-12-11T10:40:15;0.75;;;0.75;;
10523;SDS011;5310;48.638;9.060;2022-12-11T10:42:50;0.80;;;0.80;;
10523;SDS011;5310;48.638;9.060;2022-12-11T10:45:17;0.90;;;0.90;;
10523;SDS011;5310;48.638;9.060;2022-12-11T10:47:43;0.80;;;0.80;;
10523;SDS011;5310;48.638;9.060;2022-12-11T10:50:23;0.98;;;0.98;;
10523;SDS011;5310;48.638;9.060;2022-12-11T10:52:49;1.00;;;1.00;;
10523;SDS011;5310;48.638;9.060;2022-12-11T11:10:28;1.10;;;1.10;;
10523;SDS011;5310;48.638;9.060;2022-12-11T11:12:54;1.10;;;1.10;;
10523;SDS011;5310;48.638;9.060;2022-12-11T11:15:25;1.10;;;1.10;;
10523;SDS011;5310;48.638;9.060;2022-12-11T11:17:53;1.10;;;1.10;;
10523;SDS011;5310;48.638;9.060;2022-12-11T11:20:25;1.10;;;1.10;;
10523;SDS011;5310;48.638;9.060;2022-12-11T11:22:54;1.10;;;1.10;;
10523;SDS011;5310;48.638;9.060;2022-12-11T11:25:22;1.10;;;1.10;;
10523;SDS011;5310;48.638;9.060;2022-12-11T11:30:27;1.10;;;1.10;;
10523;SDS011;5310;48.638;9.060;2022-12-11T11:32:57;1.10;;;1.10;;
10523;SDS011;5310;48.638;9.060;2022-12-11T11:35:29;1.10;;;1.10;;
10523;SDS011;5310;48.638;9.060;2022-12-11T11:38:00;1.10;;;1.10;;
10523;SDS011;5310;48.638;9.060;2022-12-11T11:40:36;1.10;;;1.10;;
10523;SDS011;5310;48.638;9.060;2022-12-11T11:43:26;1.17;;;1.17;;
10523;SDS011;5310;48.638;9.060;2022-12-11T11:46:09;1.10;;;1.10;;
10523;SDS011;5310;48.638;9.060;2022-12-11T11:51:30;1.10;;;1.10;;
10523;SDS011;5310;48.638;9.060;2022-12-11T11:54:00;1.10;;;1.10;;
10523;SDS011;5310;48.638;9.060;2022-12-11T11:56:30;1.17;;;1.17;;
10523;SDS011;5310;48.638;9.060;2022-12-11T11:59:05;1.10;;;1.10;;
10523;SDS011;5310;48.638;9.060;2022-12-11T12:01:44;1.17;;;1.17;;
10523;SDS011;5310;48.638;9.060;2022-12-11T12:04:10;1.10;;;1.10;;
10523;SDS011;5310;48.638;9.060;2022-12-11T12:06:47;1.10;;;1.10;;
10523;SDS011;5310;48.638;9.060;2022-12-11T12:09:42;1.10;;;1.10;;
10523;SDS011;5310;48.638;9.060;2022-12-11T12:20:18;1.10;;;1.10;;
10523;SDS011;5310;48.638;9.060;2022-12-11T12:23:13;1.10;;;1.10;;
10523;SDS011;5310;48.638;9.060;2022-12-11T12:31:43;1.10;;;1.10;;
10523;SDS011;5310;48.638;9.060;2022-12-11T12:47:50;1.10;;;1.10;;
10523;SDS011;5310;48.638;9.060;2022-12-11T12:50:21;1.00;;;1.00;;
10523;SDS011;5310;48.638;9.060;2022-12-11T12:52:49;1.00;;;1.00;;
10523;SDS011;5310;48.638;9.060;2022-12-11T12:55:18;0.88;;;0.88;;
10523;SDS011;5310;48.638;9.060;2022-12-11T13:00:12;0.80;;;0.80;;
10523;SDS011;5310;48.638;9.060;2022-12-11T13:02:48;0.65;;;0.65;;
10523;SDS011;5310;48.638;9.060;2022-12-11T13:07:49;1.00;;;1.00;;
10523;SDS011;5310;48.638;9.060;2022-12-11T13:13:02;1.00;;;1.00;;
10523;SDS011;5310;48.638;9.060;2022-12-11T13:18:28;1.10;;;1.10;;
10523;SDS011;5310;48.638;9.060;2022-12-11T13:20:57;1.10;;;1.10;;
10523;SDS011;5310;48.638;9.060;2022-12-11T13:23:27;1.10;;;1.10;;
10523;SDS011;5310;48.638;9.060;2022-12-11T13:25:59;1.10;;;1.10;;
10523;SDS011;5310;48.638;9.060;2022-12-11T13:31:38;1.10;;;1.10;;
10523;SDS011;5310;48.638;9.060;2022-12-11T13:33:38;1.10;;;1.10;;
10523;SDS011;5310;48.638;9.060;2022-12-11T13:38:33;1.10;;;1.10;;
10523;SDS011;5310;48.638;9.060;2022-12-11T13:41:00;1.10;;;1.10;;
10523;SDS011;5310;48.638;9.060;2022-12-11T13:43:29;1.10;;;1.10;;
10523;SDS011;5310;48.638;9.060;2022-12-11T13:45:57;1.10;;;1.10;;
10523;SDS011;5310;48.638;9.060;2022-12-11T13:48:31;1.10;;;1.10;;
10523;SDS011;5310;48.638;9.060;2022-12-11T13:51:00;1.20;;;1.20;;
10523;SDS011;5310;48.638;9.060;2022-12-11T13:53:27;1.00;;;1.00;;
10523;SDS011;5310;48.638;9.060;2022-12-11T13:56:02;1.10;;;1.10;;
10523;SDS011;5310;48.638;9.060;2022-12-11T13:58:33;1.10;;;1.10;;
10523;SDS011;5310;48.638;9.060;2022-12-11T14:01:21;1.10;;;1.10;;
10523;SDS011;5310;48.638;9.060;2022-12-11T14:03:52;1.20;;;1.20;;
10523;SDS011;5310;48.638;9.060;2022-12-11T14:06:20;1.10;;;1.10;;
10523;SDS011;5310;48.638;9.060;2022-12-11T14:08:47;1.00;;;1.00;;
10523;SDS011;5310;48.638;9.060;2022-12-11T14:11:22;1.10;;;1.10;;
10523;SDS011;5310;48.638;9.060;2022-12-11T14:13:54;1.10;;;1.10;;
10523;SDS011;5310;48.638;9.060;2022-12-11T14:16:22;1.10;;;1.10;;
10523;SDS011;5310;48.638;9.060;2022-12-11T14:18:50;1.10;;;1.10;;
10523;SDS011;5310;48.638;9.060;2022-12-11T14:21:18;1.10;;;1.10;;
10523;SDS011;5310;48.638;9.060;2022-12-11T14:23:52;1.20;;;1.20;;
10523;SDS011;5310;48.638;9.060;2022-12-11T14:26:32;1.10;;;1.10;;
10523;SDS011;5310;48.638;9.060;2022-12-11T14:28:59;1.10;;;1.10;;
10523;SDS011;5310;48.638;9.060;2022-12-11T14:31:39;1.10;;;1.10;;
10523;SDS011;5310;48.638;9.060;2022-12-11T14:34:10;1.10;;;1.10;;
10523;SDS011;5310;48.638;9.060;2022-12-11T14:36:47;1.13;;;1.13;;
10523;SDS011;5310;48.638;9.060;2022-12-11T14:39:15;1.10;;;1.10;;
10523;SDS011;5310;48.638;9.060;2022-12-11T14:41:49;1.10;;;1.10;;
10523;SDS011;5310;48.638;9.060;2022-12-11T14:44:26;1.10;;;1.10;;
10523;SDS011;5310;48.638;9.060;2022-12-11T14:46:56;1.10;;;1.10;;
10523;SDS011;5310;48.638;9.060;2022-12-11T14:49:32;1.20;;;1.20;;
10523;SDS011;5310;48.638;9.060;2022-12-11T14:52:14;1.10;;;1.10;;
10523;SDS011;5310;48.638;9.060;2022-12-11T14:55:06;1.17;;;1.17;;
10523;SDS011;5310;48.638;9.060;2022-12-11T14:57:38;1.10;;;1.10;;
10523;SDS011;5310;48.638;9.060;2022-12-11T15:00:07;1.10;;;1.10;;
10523;SDS011;5310;48.638;9.060;2022-12-11T15:02:44;1.10;;;1.10;;
10523;SDS011;5310;48.638;9.060;2022-12-11T15:05:22;1.10;;;1.10;;
10523;SDS011;5310;48.638;9.060;2022-12-11T15:07:55;1.10;;;1.10;;
10523;SDS011;5310;48.638;9.060;2022-12-11T15:10:27;1.10;;;1.10;;
10523;SDS011;5310;48.638;9.060;2022-12-11T15:12:55;1.10;;;1.10;;
10523;SDS011;5310;48.638;9.060;2022-12-11T15:15:21;1.10;;;1.10;;
10523;SDS011;5310;48.638;9.060;2022-12-11T15:17:48;1.10;;;1.10;;
10523;SDS011;5310;48.638;9.060;2022-12-11T15:20:24;1.20;;;1.20;;
10523;SDS011;5310;48.638;9.060;2022-12-11T15:22:52;1.10;;;1.10;;
10523;SDS011;5310;48.638;9.060;2022-12-11T15:25:22;1.10;;;1.10;;
10523;SDS011;5310;48.638;9.060;2022-12-11T15:27:49;1.10;;;1.10;;
10523;SDS011;5310;48.638;9.060;2022-12-11T15:32:43;1.10;;;1.10;;
10523;SDS011;5310;48.638;9.060;2022-12-11T15:35:22;1.10;;;1.10;;
10523;SDS011;5310;48.638;9.060;2022-12-11T15:37:54;1.20;;;1.20;;
10523;SDS011;5310;48.638;9.060;2022-12-11T15:40:20;1.20;;;1.20;;
10523;SDS011;5310;48.638;9.060;2022-12-11T15:42:46;1.10;;;1.10;;
10523;SDS011;5310;48.638;9.060;2022-12-11T15:45:16;1.20;;;1.20;;
10523;SDS011;5310;48.638;9.060;2022-12-11T15:47:44;1.10;;;1.10;;
10523;SDS011;5310;48.638;9.060;2022-12-11T15:50:14;1.20;;;1.20;;
10523;SDS011;5310;48.638;9.060;2022-12-11T15:52:41;1.27;;;1.27;;
10523;SDS011;5310;48.638;9.060;2022-12-11T15:55:07;1.20;;;1.20;;
10523;SDS011;5310;48.638;9.060;2022-12-11T15:57:33;1.10;;;1.10;;
10523;SDS011;5310;48.638;9.060;2022-12-11T15:59:59;1.10;;;1.10;;
10523;SDS011;5310;48.638;9.060;2022-12-11T16:02:25;1.10;;;1.10;;
10523;SDS011;5310;48.638;9.060;2022-12-11T16:04:52;1.10;;;1.10;;
10523;SDS011;5310;48.638;9.060;2022-12-11T16:07:21;1.20;;;1.20;;
10523;SDS011;5310;48.638;9.060;2022-12-11T16:09:48;1.13;;;1.13;;
10523;SDS011;5310;48.638;9.060;2022-12-11T16:12:14;1.10;;;1.10;;
10523;SDS011;5310;48.638;9.060;2022-12-11T16:14:40;1.10;;;1.10;;
10523;SDS011;5310;48.638;9.060;2022-12-11T16:17:07;1.10;;;1.10;;
10523;SDS011;5310;48.638;9.060;2022-12-11T16:19:34;1.10;;;1.10;;
10523;SDS011;5310;48.638;9.060;2022-12-11T16:22:00;1.20;;;1.20;;
10523;SDS011;5310;48.638;9.060;2022-12-11T16:24:26;1.17;;;1.17;;
10523;SDS011;5310;48.638;9.060;2022-12-11T16:26:52;1.10;;;1.10;;
10523;SDS011;5310;48.638;9.060;2022-12-11T16:29:18;1.10;;;1.10;;
10523;SDS011;5310;48.638;9.060;2022-12-11T16:31:44;1.10;;;1.10;;
10523;SDS011;5310;48.638;9.060;2022-12-11T16:34:10;1.10;;;1.10;;
10523;SDS011;5310;48.638;9.060;2022-12-11T16:36:36;1.10;;;1.10;;
10523;SDS011;5310;48.638;9.060;2022-12-11T16:39:02;1.20;;;1.20;;
10523;SDS011;5310;48.638;9.060;2022-12-11T16:41:27;1.10;;;1.10;;
10523;SDS011;5310;48.638;9.060;2022-12-11T16:43:53;1.10;;;1.10;;
10523;SDS011;5310;48.638;9.060;2022-12-11T16:46:20;1.10;;;1.10;;
10523;SDS011;5310;48.638;9.060;2022-12-11T16:48:46;1.17;;;1.17;;
10523;SDS011;5310;48.638;9.060;2022-12-11T16:51:12;1.20;;;1.20;;
10523;SDS011;5310;48.638;9.060;2022-12-11T16:53:38;1.20;;;1.20;;